Time;durP1;ratioP1;P1;durP2;ratioP2;P2;SDS_P1;SDS_P2;PMS_P1;PMS_P2;Temp;Humidity;BMP_temperature;BMP_pressure;BME280_temperature;BME280_humidity;BME280_pressure;Samples;Min_cycle;Max_cycle;Signal;HPM_P1;HPM_P2
2023/09/25 00:02:06;;;;;;;163.07;100.32;;;27.90;99.90;;;;;;5054824;28;20462;-67
2023/09/25 00:04:33;;;;;;;151.80;95.55;;;27.90;99.90;;;;;;5054984;28;20056;-65
2023/09/25 00:07:02;;;;;;;136.30;93.95;;;28.00;99.90;;;;;;5055035;28;20385;-67
2023/09/25 00:09:29;;;;;;;141.43;86.72;;;28.00;99.90;;;;;;5054746;28;20047;-68
2023/09/25 00:11:55;;;;;;;133.90;83.82;;;28.10;99.90;;;;;;5054792;28;20462;-68
2023/09/25 00:14:22;;;;;;;122.63;81.55;;;28.10;99.90;;;;;;5054455;28;20494;-69
2023/09/25 00:16:48;;;;;;;123.07;80.90;;;28.10;99.90;;;;;;5069640;28;20016;-68
2023/09/25 00:19:16;;;;;;;127.85;82.25;;;28.10;99.90;;;;;;5094803;28;20020;-69
2023/09/25 00:21:43;;;;;;;121.18;79.22;;;28.20;99.90;;;;;;5094995;28;20027;-68
2023/09/25 00:24:09;;;;;;;120.65;76.30;;;28.30;99.90;;;;;;5094391;28;20027;-66
2023/09/25 00:26:36;;;;;;;114.43;74.80;;;28.40;99.90;;;;;;5094636;28;20024;-69
2023/09/25 00:29:03;;;;;;;111.70;67.85;;;28.40;99.90;;;;;;5094699;28;20020;-66
2023/09/25 00:31:30;;;;;;;103.10;64.18;;;28.40;99.90;;;;;;5094301;28;20024;-68
2023/09/25 00:33:57;;;;;;;99.35;64.22;;;28.40;99.90;;;;;;5094665;28;20035;-68
2023/09/25 00:36:23;;;;;;;98.72;61.65;;;28.50;99.90;;;;;;5094288;28;20028;-67
2023/09/25 00:38:50;;;;;;;93.18;59.03;;;28.50;99.90;;;;;;5094292;28;20028;-68
2023/09/25 00:41:16;;;;;;;81.47;53.83;;;28.60;99.90;;;;;;5094328;28;20017;-68
2023/09/25 00:43:43;;;;;;;87.05;56.63;;;28.60;99.90;;;;;;5094390;28;20020;-68
2023/09/25 00:46:09;;;;;;;86.85;54.78;;;28.70;99.90;;;;;;5094315;28;20102;-68
2023/09/25 00:48:36;;;;;;;83.70;53.38;;;28.70;99.90;;;;;;5094525;28;20103;-67
2023/09/25 00:51:04;;;;;;;79.43;51.03;;;28.80;99.90;;;;;;5094205;28;20430;-68
2023/09/25 00:53:32;;;;;;;71.20;48.70;;;28.80;99.90;;;;;;5094011;28;20496;-68
2023/09/25 00:55:58;;;;;;;68.75;47.00;;;28.80;99.90;;;;;;5093970;28;20077;-69
2023/09/25 00:58:25;;;;;;;72.28;46.47;;;28.90;99.90;;;;;;5094067;28;20087;-69
2023/09/25 01:00:53;;;;;;;70.75;45.92;;;29.00;99.90;;;;;;5093736;28;20020;-69
2023/09/25 01:03:20;;;;;;;71.78;46.28;;;29.10;99.90;;;;;;5094070;28;20532;-65
2023/09/25 01:05:47;;;;;;;66.68;43.97;;;29.10;99.90;;;;;;5093803;28;20082;-66
2023/09/25 01:08:14;;;;;;;74.38;46.35;;;29.20;99.90;;;;;;5093820;28;20095;-66
2023/09/25 01:10:42;;;;;;;68.45;44.65;;;29.30;99.90;;;;;;5093709;28;20052;-67
2023/09/25 01:13:10;;;;;;;71.25;44.70;;;29.30;99.90;;;;;;5093767;28;20534;-66
2023/09/25 01:15:36;;;;;;;67.07;43.72;;;29.40;99.90;;;;;;5093550;28;20112;-69
2023/09/25 01:18:03;;;;;;;61.60;41.17;;;29.50;99.90;;;;;;5093966;28;20027;-66
2023/09/25 01:20:29;;;;;;;65.22;40.95;;;29.50;99.90;;;;;;5088946;28;20107;-67
2023/09/25 01:22:56;;;;;;;61.15;42.38;;;29.50;99.90;;;;;;5053374;28;20021;-65
2023/09/25 01:25:23;;;;;;;71.95;43.90;;;29.60;99.90;;;;;;5062760;28;20027;-66
2023/09/25 01:27:49;;;;;;;68.80;44.58;;;29.60;99.90;;;;;;5073622;28;20024;-66
2023/09/25 01:30:17;;;;;;;62.33;43.13;;;29.70;99.90;;;;;;5056661;28;20108;-64
2023/09/25 01:32:45;;;;;;;78.03;44.38;;;29.70;99.90;;;;;;5053541;28;20033;-66
2023/09/25 01:35:16;;;;;;;76.20;45.60;;;29.80;99.90;;;;;;5057656;28;20055;-66
2023/09/25 01:37:42;;;;;;;77.20;48.47;;;29.80;99.90;;;;;;5062173;28;20369;-65
2023/09/25 01:40:13;;;;;;;76.10;46.30;;;29.90;99.90;;;;;;5053445;28;20071;-66
2023/09/25 01:42:40;;;;;;;83.85;47.35;;;30.00;99.90;;;;;;5053295;28;20021;-66
2023/09/25 01:45:09;;;;;;;82.07;50.35;;;30.00;99.90;;;;;;5053053;28;20025;-65
2023/09/25 01:47:36;;;;;;;81.03;50.55;;;30.00;99.90;;;;;;5053520;28;20047;-65
2023/09/25 01:50:03;;;;;;;80.55;50.67;;;30.20;99.90;;;;;;5053369;28;20021;-65
2023/09/25 01:52:30;;;;;;;77.18;48.17;;;30.20;99.90;;;;;;5053084;28;20021;-64
2023/09/25 01:54:57;;;;;;;87.85;56.83;;;30.20;99.90;;;;;;5053489;28;20033;-65
2023/09/25 01:57:24;;;;;;;81.28;50.05;;;30.30;99.90;;;;;;5053559;28;20021;-67
2023/09/25 01:59:50;;;;;;;87.60;53.03;;;30.30;99.90;;;;;;5053303;28;20017;-66
2023/09/25 02:02:17;;;;;;;145.13;84.97;;;30.50;99.90;;;;;;5053311;28;20021;-67
2023/09/25 02:04:44;;;;;;;109.72;67.55;;;30.50;99.90;;;;;;5052792;28;20044;-67
2023/09/25 02:07:11;;;;;;;81.72;46.30;;;30.60;99.90;;;;;;5053115;28;20040;-66
2023/09/25 02:09:37;;;;;;;80.65;48.28;;;30.60;99.90;;;;;;5052927;28;20398;-67
2023/09/25 02:12:05;;;;;;;78.88;46.28;;;30.70;99.90;;;;;;5055117;28;20032;-67
2023/09/25 02:14:31;;;;;;;72.88;45.28;;;30.80;99.90;;;;;;5056953;28;20103;-66
2023/09/25 02:16:58;;;;;;;91.32;51.53;;;30.80;99.90;;;;;;5056894;28;20539;-69
2023/09/25 02:19:28;;;;;;;70.97;44.42;;;30.90;99.90;;;;;;5056720;28;20033;-66
2023/09/25 02:21:54;;;;;;;71.63;43.92;;;30.90;99.90;;;;;;5056821;28;20095;-66
2023/09/25 02:24:21;;;;;;;73.57;43.03;;;31.00;99.90;;;;;;5056752;28;20025;-67
2023/09/25 02:26:48;;;;;;;69.63;43.22;;;31.10;99.90;;;;;;5056625;28;20076;-67
2023/09/25 02:29:14;;;;;;;72.45;43.97;;;31.10;99.90;;;;;;5082765;28;20021;-66
2023/09/25 02:31:41;;;;;;;75.88;48.45;;;31.20;99.90;;;;;;5091038;28;20036;-69
2023/09/25 02:34:14;;;;;;;69.78;44.63;;;31.30;99.90;;;;;;5077419;28;20024;-67
2023/09/25 02:36:41;;;;;;;75.85;46.38;;;31.30;99.90;;;;;;5077350;28;20398;-64
2023/09/25 02:39:09;;;;;;;68.00;43.80;;;31.40;99.90;;;;;;5080759;28;20431;-68
2023/09/25 02:41:36;;;;;;;69.10;40.97;;;31.50;99.90;;;;;;5087316;28;20016;-67
2023/09/25 02:44:03;;;;;;;80.68;42.42;;;31.50;99.90;;;;;;5088102;28;20054;-67
2023/09/25 02:46:29;;;;;;;69.35;43.17;;;31.60;99.90;;;;;;5079703;28;20124;-67
2023/09/25 02:48:56;;;;;;;72.90;44.67;;;31.70;99.90;;;;;;5088085;28;20431;-68
2023/09/25 02:51:23;;;;;;;69.25;43.40;;;31.80;99.90;;;;;;5085560;28;20155;-65
2023/09/25 02:53:51;;;;;;;61.92;41.20;;;31.80;99.90;;;;;;5082709;28;20025;-66
2023/09/25 02:56:17;;;;;;;60.03;38.50;;;31.80;99.90;;;;;;5086068;28;20024;-65
2023/09/25 02:58:44;;;;;;;58.45;35.40;;;31.90;99.90;;;;;;5090330;28;20091;-68
2023/09/25 03:01:10;;;;;;;53.97;34.88;;;31.90;99.90;;;;;;5096899;28;20072;-67
2023/09/25 03:03:38;;;;;;;53.95;34.40;;;31.90;99.90;;;;;;5096263;28;20043;-66
2023/09/25 03:06:05;;;;;;;62.28;37.30;;;31.90;99.90;;;;;;5096072;28;20036;-66
2023/09/25 03:08:32;;;;;;;63.75;38.92;;;32.00;99.90;;;;;;5096368;28;20028;-65
2023/09/25 03:10:58;;;;;;;75.93;38.38;;;32.00;99.90;;;;;;5096342;28;20020;-66
2023/09/25 03:13:25;;;;;;;66.63;41.15;;;32.10;99.90;;;;;;5095814;28;20046;-65
2023/09/25 03:15:51;;;;;;;81.90;39.97;;;32.20;99.90;;;;;;5095849;28;20039;-64
2023/09/25 03:18:18;;;;;;;94.00;40.33;;;32.30;99.90;;;;;;5095311;28;20460;-63
2023/09/25 03:20:44;;;;;;;80.65;45.42;;;32.40;99.90;;;;;;5093801;28;20384;-65
2023/09/25 03:23:11;;;;;;;83.30;45.35;;;32.40;99.90;;;;;;5093624;28;20028;-65
2023/09/25 03:25:40;;;;;;;82.28;49.08;;;32.40;99.90;;;;;;5094940;28;20028;-65
2023/09/25 03:28:07;;;;;;;112.60;62.00;;;32.50;99.90;;;;;;5094734;28;20103;-65
2023/09/25 03:30:34;;;;;;;144.02;81.63;;;32.60;99.90;;;;;;5094745;28;20561;-66
2023/09/25 03:33:00;;;;;;;148.18;85.20;;;32.60;99.90;;;;;;5094881;28;20107;-65
2023/09/25 03:35:27;;;;;;;155.25;87.88;;;32.70;99.90;;;;;;5095337;28;20031;-66
2023/09/25 03:37:54;;;;;;;146.32;83.55;;;32.80;99.90;;;;;;5095343;28;20024;-66
2023/09/25 03:40:23;;;;;;;158.88;88.55;;;32.90;99.90;;;;;;5095248;28;20058;-65
2023/09/25 03:42:50;;;;;;;239.90;118.43;;;32.90;99.90;;;;;;5095294;28;20020;-66
2023/09/25 03:45:16;;;;;;;202.82;114.22;;;33.00;99.70;;;;;;5095059;28;20028;-65
2023/09/25 03:47:43;;;;;;;185.07;104.68;;;32.90;99.90;;;;;;5095201;28;20023;-65
2023/09/25 03:50:10;;;;;;;180.95;102.40;;;33.00;99.60;;;;;;5095378;28;20111;-66
2023/09/25 03:52:37;;;;;;;183.95;108.80;;;33.00;99.20;;;;;;5094870;28;20047;-65
2023/09/25 03:55:04;;;;;;;206.48;110.72;;;33.00;99.50;;;;;;5076654;28;20419;-65
2023/09/25 03:57:31;;;;;;;179.23;104.25;;;33.10;99.40;;;;;;5076479;28;20027;-69
2023/09/25 03:59:57;;;;;;;162.60;92.25;;;33.10;99.30;;;;;;5084489;28;20374;-69
2023/09/25 04:02:24;;;;;;;132.00;76.65;;;33.20;99.10;;;;;;5083942;28;20020;-71
2023/09/25 04:04:51;;;;;;;130.98;74.72;;;33.20;98.30;;;;;;5085222;28;20062;-71
2023/09/25 04:07:18;;;;;;;107.60;61.72;;;33.30;98.40;;;;;;5084364;28;20052;-71
2023/09/25 04:09:45;;;;;;;60.78;36.03;;;33.40;98.00;;;;;;5083209;28;20036;-72
2023/09/25 04:12:11;;;;;;;90.82;50.08;;;33.50;96.90;;;;;;5083915;28;20046;-72
2023/09/25 04:14:38;;;;;;;126.53;74.20;;;33.70;97.30;;;;;;5084261;28;20103;-72
2023/09/25 04:17:10;;;;;;;136.25;74.75;;;33.70;97.10;;;;;;5084881;28;20033;-70
2023/09/25 04:19:37;;;;;;;69.18;39.83;;;33.70;96.90;;;;;;5081841;28;20013;-69
2023/09/25 04:22:06;;;;;;;65.70;37.78;;;33.70;95.70;;;;;;5083446;28;20016;-70
2023/09/25 04:24:37;;;;;;;60.95;37.13;;;33.80;95.70;;;;;;5080736;28;20074;-69
2023/09/25 04:27:04;;;;;;;58.72;35.20;;;33.80;95.70;;;;;;5083783;28;20507;-68
2023/09/25 04:29:31;;;;;;;63.70;38.35;;;33.90;96.10;;;;;;5084948;28;20028;-69
2023/09/25 04:31:58;;;;;;;47.50;31.92;;;33.90;95.80;;;;;;5083616;28;20024;-69
2023/09/25 04:34:24;;;;;;;37.50;26.40;;;34.00;96.30;;;;;;5082848;28;20419;-69
2023/09/25 04:36:52;;;;;;;44.90;27.52;;;34.10;96.50;;;;;;5084713;28;20027;-70
2023/09/25 04:39:20;;;;;;;39.78;25.02;;;34.20;95.30;;;;;;5083808;28;20017;-70
2023/09/25 04:41:47;;;;;;;32.80;25.85;;;34.20;95.70;;;;;;5082746;28;20051;-70
2023/09/25 04:44:14;;;;;;;35.10;22.05;;;34.20;95.90;;;;;;5080411;28;20102;-69
2023/09/25 04:46:40;;;;;;;34.67;21.48;;;34.40;95.20;;;;;;5083591;28;20020;-70
2023/09/25 04:49:07;;;;;;;36.28;22.52;;;34.40;94.60;;;;;;5084684;28;20020;-71
2023/09/25 04:51:35;;;;;;;40.15;24.58;;;34.40;94.50;;;;;;5082844;28;20469;-70
2023/09/25 04:54:03;;;;;;;38.22;25.20;;;34.30;95.10;;;;;;5082790;28;20032;-69
2023/09/25 04:56:29;;;;;;;34.13;23.73;;;34.30;95.40;;;;;;5084427;28;20502;-71
2023/09/25 04:58:57;;;;;;;42.22;28.33;;;34.30;95.60;;;;;;5082829;28;20024;-76
2023/09/25 05:01:24;;;;;;;42.03;30.17;;;34.50;95.40;;;;;;5082691;28;20020;-72
2023/09/25 05:03:50;;;;;;;45.78;30.10;;;34.50;95.50;;;;;;5084603;28;20016;-72
2023/09/25 05:06:17;;;;;;;37.92;26.00;;;34.60;95.50;;;;;;5082989;28;20044;-72
2023/09/25 05:08:43;;;;;;;31.70;23.35;;;34.60;95.60;;;;;;5083026;28;20023;-71
2023/09/25 05:11:11;;;;;;;31.23;23.88;;;34.70;94.90;;;;;;5084294;28;20016;-71
2023/09/25 05:13:37;;;;;;;30.70;21.42;;;34.50;95.10;;;;;;5082820;28;20095;-71
2023/09/25 05:16:04;;;;;;;31.48;22.08;;;34.50;94.80;;;;;;5082706;28;20033;-71
2023/09/25 05:18:31;;;;;;;27.83;22.10;;;34.40;94.60;;;;;;5076425;28;20059;-65
2023/09/25 05:20:58;;;;;;;37.05;24.20;;;34.50;94.80;;;;;;5070588;28;20024;-66
2023/09/25 05:23:25;;;;;;;38.97;25.55;;;34.50;94.50;;;;;;5053500;28;20462;-67
2023/09/25 05:25:52;;;;;;;36.15;24.55;;;34.70;93.70;;;;;;5066343;28;20537;-67
2023/09/25 05:28:18;;;;;;;31.70;22.38;;;34.80;93.00;;;;;;5055220;28;20492;-66
2023/09/25 05:30:45;;;;;;;33.30;22.38;;;34.70;93.40;;;;;;5053448;28;20028;-66
2023/09/25 05:33:12;;;;;;;28.67;20.90;;;34.60;93.50;;;;;;5053282;28;20029;-66
2023/09/25 05:35:39;;;;;;;33.92;24.67;;;34.60;93.80;;;;;;5035448;28;20381;-67
2023/09/25 05:38:06;;;;;;;39.20;30.92;;;34.60;93.90;;;;;;5053373;28;20539;-69
2023/09/25 05:40:32;;;;;;;55.63;38.97;;;34.50;93.30;;;;;;5061866;28;20057;-67
2023/09/25 05:42:59;;;;;;;49.22;34.08;;;34.60;93.50;;;;;;5098146;22;20108;-65
2023/09/25 05:45:26;;;;;;;50.78;33.15;;;34.60;92.50;;;;;;5093342;28;20091;-67
2023/09/25 05:47:55;;;;;;;48.28;30.02;;;34.70;92.90;;;;;;5096792;28;20028;-65
2023/09/25 05:50:22;;;;;;;32.30;25.92;;;34.70;93.20;;;;;;5093386;28;20036;-68
2023/09/25 05:52:49;;;;;;;32.90;24.08;;;34.80;92.40;;;;;;5097527;28;20016;-66
2023/09/25 05:55:16;;;;;;;32.58;25.40;;;35.00;92.70;;;;;;5096823;28;20064;-66
2023/09/25 05:57:45;;;;;;;30.90;25.25;;;35.00;91.80;;;;;;5094173;28;20114;-67
2023/09/25 06:00:13;;;;;;;30.98;27.10;;;35.00;91.90;;;;;;5096841;28;20027;-68
2023/09/25 06:02:41;;;;;;;31.23;24.40;;;35.10;92.50;;;;;;5096689;28;20020;-66
2023/09/25 06:05:09;;;;;;;33.60;23.15;;;35.10;92.90;;;;;;5094560;28;20491;-66
2023/09/25 06:07:36;;;;;;;32.70;23.60;;;35.10;91.40;;;;;;5096908;28;20552;-66
2023/09/25 06:10:06;;;;;;;32.53;24.10;;;35.10;92.00;;;;;;5095700;28;20055;-67
2023/09/25 06:12:32;;;;;;;35.60;23.90;;;35.00;91.80;;;;;;5096284;28;20016;-66
2023/09/25 06:14:59;;;;;;;28.75;23.38;;;35.00;91.90;;;;;;5096389;28;20024;-67
2023/09/25 06:17:26;;;;;;;32.45;24.67;;;35.20;92.10;;;;;;5096556;28;20018;-68
2023/09/25 06:19:54;;;;;;;32.42;24.25;;;35.40;91.90;;;;;;5096464;28;20012;-67
2023/09/25 06:22:21;;;;;;;36.63;24.45;;;35.40;91.70;;;;;;5095565;28;20024;-66
2023/09/25 06:24:50;;;;;;;28.02;23.08;;;35.40;91.10;;;;;;5109733;28;20020;-65
2023/09/25 06:27:17;;;;;;;26.60;22.73;;;35.50;90.20;;;;;;5117061;28;20184;-65
2023/09/25 06:29:44;;;;;;;30.77;24.20;;;35.50;90.20;;;;;;5116740;28;20019;-66
2023/09/25 06:32:11;;;;;;;35.45;26.23;;;35.60;91.40;;;;;;5117117;28;20019;-67
2023/09/25 06:34:39;;;;;;;37.30;26.02;;;35.60;91.10;;;;;;5116393;28;20114;-65
2023/09/25 06:37:06;;;;;;;39.65;29.13;;;35.50;91.30;;;;;;5117071;28;20471;-67
2023/09/25 06:39:34;;;;;;;44.75;32.03;;;35.40;91.10;;;;;;5116584;28;20012;-65
2023/09/25 06:42:00;;;;;;;39.35;30.88;;;35.40;91.80;;;;;;5115303;28;20031;-66
2023/09/25 06:44:27;;;;;;;38.72;26.70;;;35.50;91.30;;;;;;5116539;28;20027;-65
2023/09/25 06:46:54;;;;;;;32.55;25.60;;;35.50;90.40;;;;;;5098264;28;20478;-66
2023/09/25 06:49:22;;;;;;;31.50;22.88;;;35.60;90.30;;;;;;5116329;28;20020;-67
2023/09/25 06:51:48;;;;;;;27.27;22.23;;;35.70;88.60;;;;;;5114829;28;20015;-67
2023/09/25 06:54:15;;;;;;;29.55;22.23;;;35.90;89.10;;;;;;5116913;28;20486;-67
2023/09/25 06:56:42;;;;;;;36.17;25.02;;;35.90;89.10;;;;;;5116656;28;20432;-67
2023/09/25 06:59:09;;;;;;;37.38;27.13;;;35.90;89.80;;;;;;5114009;28;20030;-68
2023/09/25 07:01:35;;;;;;;38.95;27.85;;;35.80;90.00;;;;;;5116591;28;20026;-68
2023/09/25 07:04:02;;;;;;;35.70;28.45;;;35.80;90.30;;;;;;5116520;28;20024;-68
2023/09/25 07:06:30;;;;;;;37.28;27.70;;;35.80;90.10;;;;;;5113860;28;20027;-69
2023/09/25 07:08:57;;;;;;;39.85;29.13;;;35.70;90.10;;;;;;5116826;28;20069;-68
2023/09/25 07:11:23;;;;;;;37.67;29.88;;;35.60;90.20;;;;;;5116695;28;20027;-67
2023/09/25 07:13:50;;;;;;;46.45;31.10;;;35.50;90.40;;;;;;5116404;28;20052;-67
2023/09/25 07:16:17;;;;;;;37.88;28.85;;;35.50;90.50;;;;;;5116210;28;20046;-67
2023/09/25 07:18:46;;;;;;;42.60;29.55;;;35.50;90.40;;;;;;5116626;28;20054;-68
2023/09/25 07:21:15;;;;;;;37.67;24.55;;;35.40;89.50;;;;;;5116259;28;20353;-67
2023/09/25 07:23:41;;;;;;;29.67;22.50;;;35.30;90.00;;;;;;5116016;28;20019;-67
2023/09/25 07:26:09;;;;;;;28.35;20.48;;;35.30;89.70;;;;;;5115986;28;20068;-69
2023/09/25 07:28:37;;;;;;;31.30;20.45;;;35.30;89.20;;;;;;5116117;28;20020;-66
2023/09/25 07:31:05;;;;;;;28.25;21.75;;;35.40;89.80;;;;;;5115615;28;20028;-66
2023/09/25 07:33:32;;;;;;;38.67;27.20;;;35.40;89.60;;;;;;5115655;28;20103;-65
2023/09/25 07:35:59;;;;;;;41.50;27.90;;;35.40;89.50;;;;;;5115590;28;20110;-67
2023/09/25 07:38:26;;;;;;;46.35;28.90;;;35.40;89.80;;;;;;5115719;28;20012;-66
2023/09/25 07:40:53;;;;;;;35.40;26.50;;;35.40;88.80;;;;;;5115419;28;20064;-66
2023/09/25 07:43:20;;;;;;;34.00;25.00;;;35.40;88.90;;;;;;5115403;28;20512;-66
2023/09/25 07:45:52;;;;;;;36.90;25.42;;;35.40;89.50;;;;;;5115614;28;20023;-65
2023/09/25 07:48:19;;;;;;;;;;;35.40;88.30;;;;;;5115679;28;20024;-67
2023/09/25 07:50:45;;;;;;;45.83;31.00;;;35.40;88.70;;;;;;5115369;28;19957;-66
2023/09/25 07:53:13;;;;;;;48.90;33.72;;;35.30;89.00;;;;;;5115375;28;20049;-67
2023/09/25 07:55:41;;;;;;;61.25;41.45;;;35.30;88.80;;;;;;5115016;28;20024;-66
2023/09/25 07:58:12;;;;;;;52.05;37.15;;;35.30;87.40;;;;;;5115187;28;20480;-65
2023/09/25 08:00:40;;;;;;;58.95;36.92;;;35.30;89.00;;;;;;5114988;28;20460;-65
2023/09/25 08:03:08;;;;;;;45.13;32.58;;;35.30;87.90;;;;;;5114850;28;20026;-66
2023/09/25 08:05:36;;;;;;;42.95;31.80;;;35.30;88.80;;;;;;5115128;28;20460;-64
2023/09/25 08:08:03;;;;;;;35.78;26.58;;;35.20;89.00;;;;;;5112420;28;20464;-66
2023/09/25 08:10:30;;;;;;;40.25;27.30;;;35.10;87.50;;;;;;5114002;28;20027;-64
2023/09/25 08:12:56;;;;;;;42.92;30.90;;;35.10;88.50;;;;;;5115030;28;20064;-64
2023/09/25 08:15:23;;;;;;;49.63;34.38;;;35.10;87.80;;;;;;5114199;28;20031;-64
2023/09/25 08:17:50;;;;;;;60.78;41.28;;;35.00;88.90;;;;;;5114533;28;20015;-64
2023/09/25 08:20:20;;;;;;;61.95;42.30;;;35.00;89.10;;;;;;5114574;28;20031;-65
2023/09/25 08:22:50;;;;;;;63.00;43.50;;;35.00;89.70;;;;;;5114530;28;20077;-64
2023/09/25 08:25:17;;;;;;;64.68;43.97;;;35.00;89.00;;;;;;5114569;28;20518;-65
2023/09/25 08:27:44;;;;;;;48.80;36.78;;;35.00;87.80;;;;;;5114124;28;20027;-64
2023/09/25 08:30:13;;;;;;;53.50;35.90;;;34.90;87.60;;;;;;5114443;28;20031;-64
2023/09/25 08:32:40;;;;;;;45.63;32.80;;;35.00;89.10;;;;;;5114340;28;20100;-64
2023/09/25 08:35:07;;;;;;;54.05;35.70;;;35.00;88.60;;;;;;5114395;28;20444;-64
2023/09/25 08:37:34;;;;;;;63.70;38.45;;;35.00;89.20;;;;;;5114184;28;20051;-63
2023/09/25 08:40:02;;;;;;;61.67;38.33;;;35.10;89.80;;;;;;5114162;28;20522;-65
2023/09/25 08:42:29;;;;;;;64.45;38.90;;;35.10;89.70;;;;;;5114111;28;20074;-64
2023/09/25 08:45:00;;;;;;;63.97;40.28;;;35.00;88.60;;;;;;5114216;28;20137;-64
2023/09/25 08:47:28;;;;;;;60.67;41.17;;;35.00;89.50;;;;;;5112413;28;20068;-65
2023/09/25 08:49:56;;;;;;;53.45;37.80;;;35.00;89.00;;;;;;5113989;28;20023;-65
2023/09/25 08:52:24;;;;;;;71.80;45.15;;;35.10;89.20;;;;;;5111360;28;20015;-65
2023/09/25 08:54:51;;;;;;;79.18;53.80;;;35.10;89.30;;;;;;5113944;28;20035;-64
2023/09/25 08:57:19;;;;;;;129.50;82.13;;;35.10;90.00;;;;;;5114118;28;20406;-65
2023/09/25 08:59:50;;;;;;;144.70;95.05;;;35.00;90.00;;;;;;5114064;28;20047;-64
2023/09/25 09:02:18;;;;;;;166.40;103.40;;;35.00;91.00;;;;;;5114997;28;20071;-66
2023/09/25 09:04:45;;;;;;;109.78;71.07;;;35.00;90.60;;;;;;5114285;28;20024;-65
2023/09/25 09:07:14;;;;;;;121.03;74.80;;;34.90;90.20;;;;;;5114203;28;20107;-65
2023/09/25 09:09:43;;;;;;;153.40;96.97;;;34.90;90.20;;;;;;5114265;28;20036;-67
2023/09/25 09:12:10;;;;;;;161.95;104.63;;;34.90;91.40;;;;;;5114514;28;20028;-67
2023/09/25 09:14:41;;;;;;;165.20;104.05;;;34.90;90.90;;;;;;5109782;28;20028;-66
2023/09/25 09:17:09;;;;;;;160.48;106.18;;;34.80;99.90;;;;;;5102867;28;20081;-65
2023/09/25 09:19:46;;;;;;;170.70;111.03;;;34.80;99.90;;;;;;5094688;28;20232;-64
2023/09/25 09:22:16;;;;;;;170.75;110.03;;;34.80;99.90;;;;;;5096910;28;20426;-64
2023/09/25 09:24:44;;;;;;;157.75;96.22;;;34.70;99.90;;;;;;5109072;28;20023;-64
2023/09/25 09:27:11;;;;;;;146.45;97.45;;;34.50;99.90;;;;;;5112304;28;20035;-65
2023/09/25 09:29:40;;;;;;;181.00;120.78;;;34.50;99.90;;;;;;5094663;28;20016;-63
2023/09/25 09:32:08;;;;;;;171.00;111.15;;;34.40;99.90;;;;;;5094788;28;20030;-64
2023/09/25 09:34:36;;;;;;;175.80;114.55;;;34.40;99.90;;;;;;5104192;28;20039;-65
2023/09/25 09:37:03;;;;;;;175.25;114.18;;;34.30;99.90;;;;;;5103881;28;20021;-65
2023/09/25 09:39:34;;;;;;;162.35;104.93;;;34.20;99.90;;;;;;5094681;28;20407;-64
2023/09/25 09:42:04;;;;;;;146.07;96.15;;;34.20;99.90;;;;;;5093818;28;20044;-64
2023/09/25 09:44:31;;;;;;;146.70;95.85;;;34.20;99.90;;;;;;5094285;28;20016;-64
2023/09/25 09:47:02;;;;;;;149.25;95.05;;;34.00;99.90;;;;;;5093979;28;20020;-63
2023/09/25 09:49:33;;;;;;;145.63;90.63;;;34.00;99.90;;;;;;5094028;28;20074;-63
2023/09/25 09:52:02;;;;;;;;;;;34.00;99.90;;;;;;5094670;28;20047;-64
2023/09/25 09:54:34;;;;;;;118.10;70.10;;;33.80;99.90;;;;;;5093940;28;19947;-65
2023/09/25 09:57:02;;;;;;;125.03;70.65;;;33.70;99.90;;;;;;5093870;28;20020;-65
2023/09/25 09:59:29;;;;;;;110.97;62.92;;;33.70;99.90;;;;;;5093977;28;20381;-65
2023/09/25 10:01:57;;;;;;;114.07;64.35;;;33.50;98.50;;;;;;5093818;28;20027;-64
2023/09/25 10:04:26;;;;;;;106.15;62.53;;;33.50;99.00;;;;;;5093324;28;20025;-65
2023/09/25 10:06:58;;;;;;;96.68;60.22;;;33.60;95.70;;;;;;5093787;28;20021;-64
2023/09/25 10:09:27;;;;;;;105.38;65.40;;;33.50;95.90;;;;;;5093469;28;20023;-64
2023/09/25 10:11:55;;;;;;;112.22;64.97;;;33.30;96.20;;;;;;5094284;28;20028;-65
2023/09/25 10:14:22;;;;;;;101.50;63.63;;;33.30;96.70;;;;;;5093837;28;20027;-64
2023/09/25 10:17:09;;;;;;;109.75;60.53;;;33.10;96.50;;;;;;5093685;28;20109;-64
2023/09/25 10:19:37;;;;;;;99.00;56.45;;;33.00;96.60;;;;;;5093630;28;20480;-65
2023/09/25 10:22:13;;;;;;;97.78;57.42;;;33.10;96.80;;;;;;5099835;28;20047;-67
2023/09/25 10:24:43;;;;;;;101.72;59.42;;;33.10;97.00;;;;;;5113801;28;20524;-65
2023/09/25 10:27:11;;;;;;;98.80;55.60;;;33.20;96.90;;;;;;5113427;28;20024;-69
2023/09/25 10:29:38;;;;;;;116.72;71.53;;;33.20;96.80;;;;;;5113521;28;20484;-69
2023/09/25 10:32:11;;;;;;;147.10;99.03;;;33.20;97.40;;;;;;5114369;28;20046;-68
2023/09/25 10:34:39;;;;;;;109.20;70.75;;;33.30;97.30;;;;;;5116997;28;20047;-67
2023/09/25 10:37:06;;;;;;;104.43;63.65;;;33.30;96.50;;;;;;5118185;28;20024;-66
2023/09/25 10:39:35;;;;;;;94.75;58.95;;;33.20;96.40;;;;;;5117279;28;20043;-68
2023/09/25 10:42:07;;;;;;;83.13;48.97;;;33.10;96.90;;;;;;5116541;28;20044;-67
2023/09/25 10:44:37;;;;;;;85.88;50.42;;;33.00;96.80;;;;;;5117340;28;20053;-68
2023/09/25 10:47:09;;;;;;;82.90;49.10;;;33.00;97.00;;;;;;5114383;28;20016;-70
2023/09/25 10:49:37;;;;;;;83.78;48.72;;;32.90;97.30;;;;;;5116964;28;20027;-71
2023/09/25 10:52:04;;;;;;;77.38;45.70;;;32.90;97.60;;;;;;5114160;28;20499;-66
2023/09/25 10:54:31;;;;;;;74.75;44.05;;;32.90;98.00;;;;;;5116802;28;20034;-68
2023/09/25 10:57:00;;;;;;;78.75;44.63;;;32.70;97.90;;;;;;5117744;28;20051;-69
2023/09/25 10:59:26;;;;;;;67.72;43.35;;;32.80;98.30;;;;;;5117246;28;20027;-69
2023/09/25 11:01:53;;;;;;;80.18;47.15;;;32.70;98.30;;;;;;5116967;28;20467;-70
2023/09/25 11:04:20;;;;;;;81.18;44.63;;;32.70;98.30;;;;;;5118019;28;20124;-70
2023/09/25 11:06:47;;;;;;;80.93;46.47;;;32.70;98.40;;;;;;5117412;28;20084;-72
2023/09/25 11:09:17;;;;;;;77.60;47.70;;;32.60;98.10;;;;;;5118036;28;20039;-71
2023/09/25 11:11:44;;;;;;;84.60;49.42;;;32.60;98.30;;;;;;5117582;28;20038;-70
2023/09/25 11:14:12;;;;;;;85.10;48.80;;;32.50;98.60;;;;;;5117539;28;20040;-70
2023/09/25 11:16:39;;;;;;;91.47;54.95;;;32.50;98.30;;;;;;5116635;28;20034;-70
2023/09/25 11:19:07;;;;;;;105.80;59.47;;;32.40;98.50;;;;;;5117237;28;20093;-70
2023/09/25 11:21:34;;;;;;;108.40;63.85;;;32.40;98.80;;;;;;5108037;28;20023;-68
2023/09/25 11:24:06;;;;;;;108.15;68.22;;;32.40;98.70;;;;;;5096159;28;20024;-69
2023/09/25 11:26:37;;;;;;;125.38;74.95;;;32.40;98.70;;;;;;5096346;28;20035;-68
2023/09/25 11:29:06;;;;;;;129.47;74.50;;;32.40;98.70;;;;;;5106124;28;20476;-66
2023/09/25 11:31:34;;;;;;;133.63;77.68;;;32.40;98.60;;;;;;5116125;28;20024;-66
2023/09/25 11:34:01;;;;;;;137.32;86.43;;;32.40;98.80;;;;;;5116298;28;20031;-65
2023/09/25 11:36:30;;;;;;;163.27;104.30;;;32.40;98.90;;;;;;5116238;28;20024;-68
2023/09/25 11:38:57;;;;;;;164.65;98.55;;;32.40;98.80;;;;;;5097032;28;20019;-65
2023/09/25 11:41:24;;;;;;;179.48;102.53;;;32.30;98.90;;;;;;5095865;28;20017;-65
2023/09/25 11:43:51;;;;;;;173.18;107.72;;;32.30;99.10;;;;;;5109306;28;20052;-66
2023/09/25 11:46:18;;;;;;;186.38;117.75;;;32.30;99.20;;;;;;5114982;28;20041;-65
2023/09/25 11:48:45;;;;;;;202.32;123.50;;;32.20;95.10;;;;;;5115489;28;20016;-64
2023/09/25 11:51:12;;;;;;;194.93;119.03;;;32.10;94.90;;;;;;5112996;28;20019;-66
2023/09/25 11:53:38;;;;;;;192.45;119.85;;;32.10;95.10;;;;;;5115365;28;20050;-66
2023/09/25 11:56:05;;;;;;;195.38;120.55;;;32.10;95.10;;;;;;5115549;28;20016;-65
2023/09/25 11:58:32;;;;;;;201.52;119.20;;;32.10;95.00;;;;;;5115357;28;20376;-65
2023/09/25 12:00:59;;;;;;;172.68;109.03;;;32.10;95.40;;;;;;5115186;28;20082;-65
2023/09/25 12:03:26;;;;;;;175.50;105.00;;;32.00;95.10;;;;;;5115295;28;20098;-65
2023/09/25 12:05:56;;;;;;;181.55;111.68;;;31.90;95.20;;;;;;5115296;28;20020;-64
2023/09/25 12:08:22;;;;;;;181.80;111.80;;;31.90;95.60;;;;;;5113087;28;20445;-64
2023/09/25 12:10:49;;;;;;;176.35;109.68;;;31.80;95.20;;;;;;5115651;28;20076;-65
2023/09/25 12:13:15;;;;;;;190.13;114.88;;;31.70;95.10;;;;;;5115187;28;20331;-63
2023/09/25 12:15:42;;;;;;;173.88;110.88;;;31.70;95.50;;;;;;5111806;28;20026;-62
2023/09/25 12:18:09;;;;;;;179.25;110.88;;;31.70;95.60;;;;;;5114559;28;20023;-62
2023/09/25 12:20:47;;;;;;;166.25;105.75;;;31.60;95.70;;;;;;5114523;28;20012;-65
2023/09/25 12:23:14;;;;;;;184.00;109.10;;;31.50;95.70;;;;;;5113187;28;20028;-62
2023/09/25 12:25:40;;;;;;;182.25;114.93;;;31.50;96.30;;;;;;5114490;28;20019;-64